sensor_id;sensor_type;location;lat;lon;timestamp;pressure;altitude;pressure_sealevel;temperature;humidity
6530;BME280;3298;42.688;23.366;2023-03-22T00:01:16;51938.13;;;-145.06;92.62
6530;BME280;3298;42.688;23.366;2023-03-22T00:03:44;51913.56;;;-145.06;93.53
6530;BME280;3298;42.688;23.366;2023-03-22T00:06:11;51942.22;;;-145.06;93.45
6530;BME280;3298;42.688;23.366;2023-03-22T00:08:38;51940.19;;;-145.06;94.16
6530;BME280;3298;42.688;23.366;2023-03-22T00:11:06;51905.38;;;-145.06;93.93
6530;BME280;3298;42.688;23.366;2023-03-22T00:13:34;51970.88;;;-145.06;95.10
6530;BME280;3298;42.688;23.366;2023-03-22T00:16:02;51950.41;;;-145.06;95.67
6530;BME280;3298;42.688;23.366;2023-03-22T00:18:29;51966.78;;;-145.06;97.31
6530;BME280;3298;42.688;23.366;2023-03-22T00:20:57;51948.38;;;-145.06;97.34
6530;BME280;3298;42.688;23.366;2023-03-22T00:23:25;51944.28;;;-145.06;99.12
6530;BME280;3298;42.688;23.366;2023-03-22T00:25:52;51970.88;;;-145.06;99.07
6530;BME280;3298;42.688;23.366;2023-03-22T00:28:19;52013.88;;;-145.06;97.95
6530;BME280;3298;42.688;23.366;2023-03-22T00:30:56;51979.06;;;-145.06;97.05
6530;BME280;3298;42.688;23.366;2023-03-22T00:33:22;51944.28;;;-145.06;96.98
6530;BME280;3298;42.688;23.366;2023-03-22T00:35:51;51993.41;;;-145.06;97.85
6530;BME280;3298;42.688;23.366;2023-03-22T00:38:18;51956.56;;;-145.06;97.54
6530;BME280;3298;42.688;23.366;2023-03-22T00:40:46;51987.25;;;-145.06;98.31
6530;BME280;3298;42.688;23.366;2023-03-22T00:43:13;51995.44;;;-145.06;99.20
6530;BME280;3298;42.688;23.366;2023-03-22T00:45:40;52003.63;;;-145.06;100.00
6530;BME280;3298;42.688;23.366;2023-03-22T00:48:09;52007.72;;;-145.06;99.23
6530;BME280;3298;42.688;23.366;2023-03-22T00:50:37;51950.41;;;-145.06;95.17
6530;BME280;3298;42.688;23.366;2023-03-22T00:53:05;51966.78;;;-145.06;95.91
6530;BME280;3298;42.688;23.366;2023-03-22T00:55:32;51934.03;;;-145.06;95.91
6530;BME280;3298;42.688;23.366;2023-03-22T00:57:58;51962.69;;;-145.06;96.01
6530;BME280;3298;42.688;23.366;2023-03-22T01:00:26;51966.78;;;-145.06;96.15
6530;BME280;3298;42.688;23.366;2023-03-22T01:02:52;51950.41;;;-145.06;95.91
6530;BME280;3298;42.688;23.366;2023-03-22T01:05:30;51966.78;;;-145.06;96.25
6530;BME280;3298;42.688;23.366;2023-03-22T01:07:59;51927.91;;;-145.06;97.88
6530;BME280;3298;42.688;23.366;2023-03-22T01:10:27;51974.97;;;-145.06;99.23
6530;BME280;3298;42.688;23.366;2023-03-22T01:12:54;51977.03;;;-145.06;98.11
6530;BME280;3298;42.688;23.366;2023-03-22T01:15:21;51979.06;;;-145.06;98.65
6530;BME280;3298;42.688;23.366;2023-03-22T01:17:48;51989.31;;;-145.06;98.53
6530;BME280;3298;42.688;23.366;2023-03-22T01:20:15;51966.78;;;-145.06;99.01
6530;BME280;3298;42.688;23.366;2023-03-22T01:22:43;51983.16;;;-145.06;98.55
6530;BME280;3298;42.688;23.366;2023-03-22T01:25:10;51991.34;;;-145.06;99.57
6530;BME280;3298;42.688;23.366;2023-03-22T01:27:37;52028.19;;;-145.06;100.00
6530;BME280;3298;42.688;23.366;2023-03-22T01:30:05;51987.25;;;-145.06;100.00
6530;BME280;3298;42.688;23.366;2023-03-22T01:32:33;52044.56;;;-145.06;100.00
6530;BME280;3298;42.688;23.366;2023-03-22T01:34:59;52044.56;;;-145.06;100.00
6530;BME280;3298;42.688;23.366;2023-03-22T01:37:26;52058.91;;;-145.06;100.00
6530;BME280;3298;42.688;23.366;2023-03-22T01:39:55;52050.72;;;-145.06;100.00
6530;BME280;3298;42.688;23.366;2023-03-22T01:42:22;52032.28;;;-145.06;100.00
6530;BME280;3298;42.688;23.366;2023-03-22T01:48:05;52011.81;;;-145.06;100.00
6530;BME280;3298;42.688;23.366;2023-03-22T01:50:34;52075.28;;;-145.06;100.00
6530;BME280;3298;42.688;23.366;2023-03-22T01:53:04;52024.09;;;-145.06;100.00
6530;BME280;3298;42.688;23.366;2023-03-22T01:55:33;52007.72;;;-145.06;100.00
6530;BME280;3298;42.688;23.366;2023-03-22T01:58:01;51991.34;;;-145.06;100.00
6530;BME280;3298;42.688;23.366;2023-03-22T02:00:29;51993.41;;;-145.06;99.37
6530;BME280;3298;42.688;23.366;2023-03-22T02:02:56;52032.28;;;-145.06;100.00
6530;BME280;3298;42.688;23.366;2023-03-22T02:05:24;51997.50;;;-145.06;100.00
6530;BME280;3298;42.688;23.366;2023-03-22T02:07:51;52032.28;;;-145.06;100.00
6530;BME280;3298;42.688;23.366;2023-03-22T02:10:21;52028.19;;;-145.06;100.00
6530;BME280;3298;42.688;23.366;2023-03-22T02:12:59;52032.28;;;-145.06;100.00
6530;BME280;3298;42.688;23.366;2023-03-22T02:15:32;52040.47;;;-145.06;100.00
6530;BME280;3298;42.688;23.366;2023-03-22T02:18:15;52065.03;;;-145.06;100.00
6530;BME280;3298;42.688;23.366;2023-03-22T02:24:08;52073.22;;;-145.06;100.00
6530;BME280;3298;42.688;23.366;2023-03-22T02:26:56;52089.59;;;-145.06;100.00
6530;BME280;3298;42.688;23.366;2023-03-22T02:29:35;52065.03;;;-145.06;100.00
6530;BME280;3298;42.688;23.366;2023-03-22T02:32:37;52032.28;;;-145.06;100.00
6530;BME280;3298;42.688;23.366;2023-03-22T02:35:41;52036.38;;;-145.06;100.00
6530;BME280;3298;42.688;23.366;2023-03-22T02:38:42;52040.47;;;-145.06;100.00
6530;BME280;3298;42.688;23.366;2023-03-22T02:41:12;52065.03;;;-145.06;100.00
6530;BME280;3298;42.688;23.366;2023-03-22T02:43:51;52011.81;;;-145.06;100.00
6530;BME280;3298;42.688;23.366;2023-03-22T02:46:28;52015.91;;;-145.06;100.00
6530;BME280;3298;42.688;23.366;2023-03-22T02:49:02;52046.63;;;-145.06;100.00
6530;BME280;3298;42.688;23.366;2023-03-22T02:51:34;52056.84;;;-145.06;100.00
6530;BME280;3298;42.688;23.366;2023-03-22T02:54:09;52065.03;;;-145.06;100.00
6530;BME280;3298;42.688;23.366;2023-03-22T02:56:41;52067.09;;;-145.06;100.00
6530;BME280;3298;42.688;23.366;2023-03-22T02:59:12;52093.69;;;-145.06;100.00
6530;BME280;3298;42.688;23.366;2023-03-22T03:01:43;52089.59;;;-145.06;100.00
6530;BME280;3298;42.688;23.366;2023-03-22T03:04:14;52087.56;;;-145.06;100.00
6530;BME280;3298;42.688;23.366;2023-03-22T03:06:43;52063.00;;;-145.06;100.00
6530;BME280;3298;42.688;23.366;2023-03-22T03:09:14;52067.09;;;-145.06;100.00
6530;BME280;3298;42.688;23.366;2023-03-22T03:11:44;52060.94;;;-145.06;100.00
6530;BME280;3298;42.688;23.366;2023-03-22T03:14:19;52044.56;;;-145.06;100.00
6530;BME280;3298;42.688;23.366;2023-03-22T03:16:49;52036.38;;;-145.06;100.00
6530;BME280;3298;42.688;23.366;2023-03-22T03:19:25;52007.72;;;-145.06;100.00
6530;BME280;3298;42.688;23.366;2023-03-22T03:21:59;52058.91;;;-145.06;100.00
6530;BME280;3298;42.688;23.366;2023-03-22T03:24:32;52022.06;;;-145.06;100.00
6530;BME280;3298;42.688;23.366;2023-03-22T03:27:05;52032.28;;;-145.06;100.00
6530;BME280;3298;42.688;23.366;2023-03-22T03:29:39;52032.28;;;-145.06;100.00
6530;BME280;3298;42.688;23.366;2023-03-22T03:32:10;52048.66;;;-145.06;100.00
6530;BME280;3298;42.688;23.366;2023-03-22T03:34:45;52065.03;;;-145.06;100.00
6530;BME280;3298;42.688;23.366;2023-03-22T03:37:16;52040.47;;;-145.06;100.00
6530;BME280;3298;42.688;23.366;2023-03-22T03:39:49;52015.91;;;-145.06;100.00
6530;BME280;3298;42.688;23.366;2023-03-22T03:42:18;51983.16;;;-145.06;98.90
6530;BME280;3298;42.688;23.366;2023-03-22T03:44:45;52003.63;;;-145.06;99.83
6530;BME280;3298;42.688;23.366;2023-03-22T03:47:12;52026.16;;;-145.06;99.64
6530;BME280;3298;42.688;23.366;2023-03-22T03:49:39;51997.50;;;-145.06;99.20
6530;BME280;3298;42.688;23.366;2023-03-22T03:52:06;51985.22;;;-145.06;97.47
6530;BME280;3298;42.688;23.366;2023-03-22T03:54:33;51974.97;;;-145.06;97.03
6530;BME280;3298;42.688;23.366;2023-03-22T03:57:01;51962.69;;;-145.06;96.26
6530;BME280;3298;42.688;23.366;2023-03-22T03:59:28;51979.06;;;-145.06;96.54
6530;BME280;3298;42.688;23.366;2023-03-22T04:01:55;51958.59;;;-145.06;97.27
6530;BME280;3298;42.688;23.366;2023-03-22T04:04:23;51970.88;;;-145.06;98.01
6530;BME280;3298;42.688;23.366;2023-03-22T04:06:52;51972.94;;;-145.06;98.07
6530;BME280;3298;42.688;23.366;2023-03-22T04:09:21;51956.56;;;-145.06;96.35
6530;BME280;3298;42.688;23.366;2023-03-22T04:11:48;51964.75;;;-145.06;98.51
6530;BME280;3298;42.688;23.366;2023-03-22T04:14:16;52003.63;;;-145.06;98.55
6530;BME280;3298;42.688;23.366;2023-03-22T04:16:43;51987.25;;;-145.06;98.59
6530;BME280;3298;42.688;23.366;2023-03-22T04:19:09;52020.00;;;-145.06;99.37
6530;BME280;3298;42.688;23.366;2023-03-22T04:21:36;52007.72;;;-145.06;99.41
6530;BME280;3298;42.688;23.366;2023-03-22T04:24:03;52003.63;;;-145.06;100.00
6530;BME280;3298;42.688;23.366;2023-03-22T04:26:31;52007.72;;;-145.06;100.00
6530;BME280;3298;42.688;23.366;2023-03-22T04:28:58;51985.22;;;-145.06;100.00
6530;BME280;3298;42.688;23.366;2023-03-22T04:31:28;51989.31;;;-145.06;100.00
6530;BME280;3298;42.688;23.366;2023-03-22T04:33:55;51970.88;;;-145.06;98.55
6530;BME280;3298;42.688;23.366;2023-03-22T04:36:25;51989.31;;;-145.06;99.30
6530;BME280;3298;42.688;23.366;2023-03-22T04:38:55;52003.63;;;-145.06;99.19
6530;BME280;3298;42.688;23.366;2023-03-22T04:41:22;51995.44;;;-145.06;99.80
6530;BME280;3298;42.688;23.366;2023-03-22T04:43:49;51999.53;;;-145.06;99.62
6530;BME280;3298;42.688;23.366;2023-03-22T04:46:16;52007.72;;;-145.06;99.28
6530;BME280;3298;42.688;23.366;2023-03-22T04:48:46;51989.31;;;-145.06;99.12
6530;BME280;3298;42.688;23.366;2023-03-22T04:51:13;51989.31;;;-145.06;99.29
6530;BME280;3298;42.688;23.366;2023-03-22T04:53:40;51981.13;;;-145.06;99.77
6530;BME280;3298;42.688;23.366;2023-03-22T04:56:09;52165.34;;;-145.06;99.55
6530;BME280;3298;42.688;23.366;2023-03-22T04:58:38;51993.41;;;-145.06;98.63
6530;BME280;3298;42.688;23.366;2023-03-22T05:01:05;51993.41;;;-145.06;97.71
6530;BME280;3298;42.688;23.366;2023-03-22T05:03:33;51987.25;;;-145.06;97.45
6530;BME280;3298;42.688;23.366;2023-03-22T05:06:04;51985.22;;;-145.06;98.44
6530;BME280;3298;42.688;23.366;2023-03-22T05:08:32;51995.44;;;-145.06;98.75
6530;BME280;3298;42.688;23.366;2023-03-22T05:11:05;51970.88;;;-145.06;99.31
6530;BME280;3298;42.688;23.366;2023-03-22T05:13:32;52011.81;;;-145.06;100.00
6530;BME280;3298;42.688;23.366;2023-03-22T05:15:58;52001.59;;;-145.06;100.00
6530;BME280;3298;42.688;23.366;2023-03-22T05:18:25;52005.69;;;-145.06;100.00
6530;BME280;3298;42.688;23.366;2023-03-22T05:20:54;52015.91;;;-145.06;100.00
6530;BME280;3298;42.688;23.366;2023-03-22T05:23:23;52007.72;;;-145.06;100.00
6530;BME280;3298;42.688;23.366;2023-03-22T05:25:50;52017.97;;;-145.06;100.00
6530;BME280;3298;42.688;23.366;2023-03-22T05:28:19;52013.88;;;-145.06;99.59
6530;BME280;3298;42.688;23.366;2023-03-22T05:30:47;52001.59;;;-145.06;100.00
6530;BME280;3298;42.688;23.366;2023-03-22T05:33:14;51993.41;;;-145.06;99.36
6530;BME280;3298;42.688;23.366;2023-03-22T05:35:47;51972.94;;;-145.06;99.07
6530;BME280;3298;42.688;23.366;2023-03-22T05:38:14;51989.31;;;-145.06;98.44
6530;BME280;3298;42.688;23.366;2023-03-22T05:40:42;51983.16;;;-145.06;98.85
6530;BME280;3298;42.688;23.366;2023-03-22T05:43:09;51966.78;;;-145.06;97.74
6530;BME280;3298;42.688;23.366;2023-03-22T05:45:36;51987.25;;;-145.06;97.03
6530;BME280;3298;42.688;23.366;2023-03-22T05:48:03;51938.13;;;-145.06;95.58
6530;BME280;3298;42.688;23.366;2023-03-22T05:50:30;51970.88;;;-145.06;95.47
6530;BME280;3298;42.688;23.366;2023-03-22T05:52:57;51991.34;;;-145.06;97.94
6530;BME280;3298;42.688;23.366;2023-03-22T05:55:24;51987.25;;;-145.06;97.37
6530;BME280;3298;42.688;23.366;2023-03-22T05:57:52;51958.59;;;-145.06;96.73
6530;BME280;3298;42.688;23.366;2023-03-22T06:00:21;51974.97;;;-145.06;95.78
6530;BME280;3298;42.688;23.366;2023-03-22T06:02:48;51917.66;;;-145.06;95.36
6530;BME280;3298;42.688;23.366;2023-03-22T06:05:16;51936.09;;;-145.06;94.74
6530;BME280;3298;42.688;23.366;2023-03-22T06:07:45;51954.50;;;-145.06;95.12
6530;BME280;3298;42.688;23.366;2023-03-22T06:10:13;51919.72;;;-145.06;94.42
6530;BME280;3298;42.688;23.366;2023-03-22T06:12:41;51942.22;;;-145.06;95.68
6530;BME280;3298;42.688;23.366;2023-03-22T06:15:10;51962.69;;;-145.06;95.80
6530;BME280;3298;42.688;23.366;2023-03-22T06:17:37;51968.84;;;-145.06;96.43
6530;BME280;3298;42.688;23.366;2023-03-22T06:20:05;51958.59;;;-145.06;95.72
6530;BME280;3298;42.688;23.366;2023-03-22T06:22:36;51974.97;;;-145.06;95.04
6530;BME280;3298;42.688;23.366;2023-03-22T06:25:04;51946.31;;;-145.06;94.58
6530;BME280;3298;42.688;23.366;2023-03-22T06:27:32;51958.59;;;-145.06;93.36
6530;BME280;3298;42.688;23.366;2023-03-22T06:29:59;51929.94;;;-145.06;91.51
6530;BME280;3298;42.688;23.366;2023-03-22T06:32:27;51917.66;;;-145.06;92.21
6530;BME280;3298;42.688;23.366;2023-03-22T06:34:54;51932.00;;;-145.06;91.63
6530;BME280;3298;42.688;23.366;2023-03-22T06:37:22;51901.28;;;-145.06;90.40
6530;BME280;3298;42.688;23.366;2023-03-22T06:39:48;51917.66;;;-145.06;90.30
6530;BME280;3298;42.688;23.366;2023-03-22T06:42:16;51911.53;;;-145.06;87.98
6530;BME280;3298;42.688;23.366;2023-03-22T06:44:43;51901.28;;;-145.06;86.98
6530;BME280;3298;42.688;23.366;2023-03-22T06:47:10;51884.91;;;-145.06;86.93
6530;BME280;3298;42.688;23.366;2023-03-22T06:49:39;51866.50;;;-145.06;85.38
6530;BME280;3298;42.688;23.366;2023-03-22T06:52:06;51880.81;;;-145.06;84.74
6530;BME280;3298;42.688;23.366;2023-03-22T06:54:33;52003.63;;;-145.06;84.73
6530;BME280;3298;42.688;23.366;2023-03-22T06:57:00;51874.69;;;-145.06;85.59
6530;BME280;3298;42.688;23.366;2023-03-22T06:59:27;51874.69;;;-145.06;84.59
6530;BME280;3298;42.688;23.366;2023-03-22T07:01:54;51854.22;;;-145.06;83.12
6530;BME280;3298;42.688;23.366;2023-03-22T07:04:21;51862.41;;;-145.06;82.91
6530;BME280;3298;42.688;23.366;2023-03-22T07:06:49;51839.91;;;-145.06;84.15
6530;BME280;3298;42.688;23.366;2023-03-22T07:09:16;51835.81;;;-145.06;83.54
6530;BME280;3298;42.688;23.366;2023-03-22T07:11:43;51872.66;;;-145.06;82.58
6530;BME280;3298;42.688;23.366;2023-03-22T07:14:10;51846.03;;;-145.06;80.92
6530;BME280;3298;42.688;23.366;2023-03-22T07:16:37;51841.94;;;-145.06;81.96
6530;BME280;3298;42.688;23.366;2023-03-22T07:19:03;51852.19;;;-145.06;81.65
6530;BME280;3298;42.688;23.366;2023-03-22T07:21:31;51852.19;;;-145.06;81.62
6530;BME280;3298;42.688;23.366;2023-03-22T07:23:59;51852.19;;;-145.06;84.01
6530;BME280;3298;42.688;23.366;2023-03-22T07:26:26;51868.56;;;-145.06;82.43
6530;BME280;3298;42.688;23.366;2023-03-22T07:28:55;51858.31;;;-145.06;82.74
6530;BME280;3298;42.688;23.366;2023-03-22T07:31:22;51864.47;;;-145.06;82.79
6530;BME280;3298;42.688;23.366;2023-03-22T07:33:52;51839.91;;;-145.06;82.93
6530;BME280;3298;42.688;23.366;2023-03-22T07:36:18;51850.13;;;-145.06;82.08
6530;BME280;3298;42.688;23.366;2023-03-22T07:38:49;51872.66;;;-145.06;83.52
6530;BME280;3298;42.688;23.366;2023-03-22T07:41:17;51846.03;;;-145.06;82.79
6530;BME280;3298;42.688;23.366;2023-03-22T07:43:44;51854.22;;;-145.06;83.20
6530;BME280;3298;42.688;23.366;2023-03-22T07:46:11;51864.47;;;-145.06;83.52
6530;BME280;3298;42.688;23.366;2023-03-22T07:48:38;51827.63;;;-145.06;83.18
6530;BME280;3298;42.688;23.366;2023-03-22T07:51:05;51858.31;;;-145.06;81.07
6530;BME280;3298;42.688;23.366;2023-03-22T07:53:32;51831.72;;;-145.06;81.96
6530;BME280;3298;42.688;23.366;2023-03-22T07:55:59;51870.59;;;-145.06;85.00
6530;BME280;3298;42.688;23.366;2023-03-22T07:58:27;51893.09;;;-145.06;86.21
6530;BME280;3298;42.688;23.366;2023-03-22T08:00:54;51862.41;;;-145.06;85.72
6530;BME280;3298;42.688;23.366;2023-03-22T08:03:21;51868.56;;;-145.06;86.81
6530;BME280;3298;42.688;23.366;2023-03-22T08:05:47;51889.00;;;-145.06;86.57
6530;BME280;3298;42.688;23.366;2023-03-22T08:08:16;51882.88;;;-145.06;87.85
6530;BME280;3298;42.688;23.366;2023-03-22T08:10:47;51868.56;;;-145.06;86.82
6530;BME280;3298;42.688;23.366;2023-03-22T08:13:15;51864.47;;;-145.06;87.30
6530;BME280;3298;42.688;23.366;2023-03-22T08:15:43;51903.34;;;-145.06;87.91
6530;BME280;3298;42.688;23.366;2023-03-22T08:18:10;51889.00;;;-145.06;87.55
6530;BME280;3298;42.688;23.366;2023-03-22T08:20:36;51893.09;;;-145.06;88.00
6530;BME280;3298;42.688;23.366;2023-03-22T08:23:03;51864.47;;;-145.06;86.45
6530;BME280;3298;42.688;23.366;2023-03-22T08:25:32;51868.56;;;-145.06;86.63
6530;BME280;3298;42.688;23.366;2023-03-22T08:27:59;51837.84;;;-145.06;86.29
6530;BME280;3298;42.688;23.366;2023-03-22T08:30:26;51895.16;;;-145.06;85.98
6530;BME280;3298;42.688;23.366;2023-03-22T08:32:54;51884.91;;;-145.06;86.81
6530;BME280;3298;42.688;23.366;2023-03-22T08:35:21;51872.66;;;-145.06;87.15
6530;BME280;3298;42.688;23.366;2023-03-22T08:37:52;51886.97;;;-145.06;86.08
6530;BME280;3298;42.688;23.366;2023-03-22T08:40:19;51876.75;;;-145.06;85.16
6530;BME280;3298;42.688;23.366;2023-03-22T08:42:47;51901.28;;;-145.06;84.81
6530;BME280;3298;42.688;23.366;2023-03-22T08:45:14;51856.28;;;-145.06;84.70
6530;BME280;3298;42.688;23.366;2023-03-22T08:47:41;51854.22;;;-145.06;82.99
6530;BME280;3298;42.688;23.366;2023-03-22T08:50:10;51876.75;;;-145.06;83.23
6530;BME280;3298;42.688;23.366;2023-03-22T08:52:37;51868.56;;;-145.06;82.80
6530;BME280;3298;42.688;23.366;2023-03-22T08:55:06;51872.66;;;-145.06;83.34
6530;BME280;3298;42.688;23.366;2023-03-22T08:57:34;51841.94;;;-145.06;81.89
6530;BME280;3298;42.688;23.366;2023-03-22T09:00:03;51831.72;;;-145.06;79.11
6530;BME280;3298;42.688;23.366;2023-03-22T09:02:31;51860.38;;;-145.06;82.42
6530;BME280;3298;42.688;23.366;2023-03-22T09:04:58;51860.38;;;-145.06;82.82
6530;BME280;3298;42.688;23.366;2023-03-22T09:07:26;51872.66;;;-145.06;80.55
6530;BME280;3298;42.688;23.366;2023-03-22T09:09:53;51905.38;;;-145.06;81.88
6530;BME280;3298;42.688;23.366;2023-03-22T09:12:20;51852.19;;;-145.06;80.61
6530;BME280;3298;42.688;23.366;2023-03-22T09:14:47;51827.63;;;-145.06;80.64
6530;BME280;3298;42.688;23.366;2023-03-22T09:17:14;51858.31;;;-145.06;81.54
6530;BME280;3298;42.688;23.366;2023-03-22T09:19:43;51841.94;;;-145.06;82.21
6530;BME280;3298;42.688;23.366;2023-03-22T09:22:10;51866.50;;;-145.06;82.79
6530;BME280;3298;42.688;23.366;2023-03-22T09:24:38;51852.19;;;-145.06;83.46
6530;BME280;3298;42.688;23.366;2023-03-22T09:27:05;51854.22;;;-145.06;82.87
6530;BME280;3298;42.688;23.366;2023-03-22T09:29:32;51878.78;;;-145.06;83.96
6530;BME280;3298;42.688;23.366;2023-03-22T09:31:58;51876.75;;;-145.06;84.72
6530;BME280;3298;42.688;23.366;2023-03-22T09:34:25;51860.38;;;-145.06;82.88
6530;BME280;3298;42.688;23.366;2023-03-22T09:36:52;51839.91;;;-145.06;83.73
6530;BME280;3298;42.688;23.366;2023-03-22T09:39:19;51844.00;;;-145.06;82.93
6530;BME280;3298;42.688;23.366;2023-03-22T09:41:50;51884.91;;;-145.06;82.29
6530;BME280;3298;42.688;23.366;2023-03-22T09:44:23;51856.28;;;-145.06;80.55
6530;BME280;3298;42.688;23.366;2023-03-22T09:46:54;51852.19;;;-145.06;81.22
6530;BME280;3298;42.688;23.366;2023-03-22T09:49:28;51846.03;;;-145.06;82.59
6530;BME280;3298;42.688;23.366;2023-03-22T09:51:55;51846.03;;;-145.06;82.89
6530;BME280;3298;42.688;23.366;2023-03-22T09:54:29;51868.56;;;-145.06;79.63
6530;BME280;3298;42.688;23.366;2023-03-22T09:57:02;51848.09;;;-145.06;80.52
6530;BME280;3298;42.688;23.366;2023-03-22T09:59:37;51850.13;;;-145.06;80.16
6530;BME280;3298;42.688;23.366;2023-03-22T10:02:27;51839.91;;;-145.06;78.09
6530;BME280;3298;42.688;23.366;2023-03-22T10:05:02;51848.09;;;-145.06;79.31
6530;BME280;3298;42.688;23.366;2023-03-22T10:07:48;51815.34;;;-145.06;80.19
6530;BME280;3298;42.688;23.366;2023-03-22T10:10:20;51844.00;;;-145.06;78.72
6530;BME280;3298;42.688;23.366;2023-03-22T10:12:53;51850.13;;;-145.06;78.40
6530;BME280;3298;42.688;23.366;2023-03-22T10:15:27;51846.03;;;-145.06;79.71
6530;BME280;3298;42.688;23.366;2023-03-22T10:17:56;51827.63;;;-145.06;80.72
6530;BME280;3298;42.688;23.366;2023-03-22T10:20:30;51862.41;;;-145.06;82.00
6530;BME280;3298;42.688;23.366;2023-03-22T10:22:58;51846.03;;;-145.06;81.07
6530;BME280;3298;42.688;23.366;2023-03-22T10:25:32;51852.19;;;-145.06;80.36
6530;BME280;3298;42.688;23.366;2023-03-22T10:28:13;51856.28;;;-145.06;81.25
6530;BME280;3298;42.688;23.366;2023-03-22T10:30:41;51852.19;;;-145.06;78.35
6530;BME280;3298;42.688;23.366;2023-03-22T10:33:13;51825.56;;;-145.06;76.58
6530;BME280;3298;42.688;23.366;2023-03-22T10:35:42;51825.56;;;-145.06;76.47
6530;BME280;3298;42.688;23.366;2023-03-22T10:38:17;51841.94;;;-145.06;78.26
6530;BME280;3298;42.688;23.366;2023-03-22T10:40:48;51819.44;;;-145.06;76.81
6530;BME280;3298;42.688;23.366;2023-03-22T10:43:20;51835.81;;;-145.06;75.99
6530;BME280;3298;42.688;23.366;2023-03-22T10:45:50;51823.53;;;-145.06;73.99
6530;BME280;3298;42.688;23.366;2023-03-22T10:48:24;51817.38;;;-145.06;74.87
6530;BME280;3298;42.688;23.366;2023-03-22T10:50:52;51825.56;;;-145.06;75.94
6530;BME280;3298;42.688;23.366;2023-03-22T10:53:26;51823.53;;;-145.06;73.51
6530;BME280;3298;42.688;23.366;2023-03-22T10:55:55;51798.97;;;-145.06;73.75
6530;BME280;3298;42.688;23.366;2023-03-22T10:58:27;51815.34;;;-145.06;74.70
6530;BME280;3298;42.688;23.366;2023-03-22T11:00:57;51811.25;;;-145.06;73.35
6530;BME280;3298;42.688;23.366;2023-03-22T11:03:28;51819.44;;;-145.06;73.81
6530;BME280;3298;42.688;23.366;2023-03-22T11:06:00;51796.91;;;-145.06;74.07
6530;BME280;3298;42.688;23.366;2023-03-22T11:08:27;51807.16;;;-145.06;71.94
6530;BME280;3298;42.688;23.366;2023-03-22T11:10:54;51821.47;;;-145.06;72.48
6530;BME280;3298;42.688;23.366;2023-03-22T11:13:26;51815.34;;;-145.06;71.93
6530;BME280;3298;42.688;23.366;2023-03-22T11:15:57;51831.72;;;-145.06;68.96
6530;BME280;3298;42.688;23.366;2023-03-22T11:18:29;51803.06;;;-145.06;70.02
6530;BME280;3298;42.688;23.366;2023-03-22T11:20:58;51792.81;;;-145.06;68.92
6530;BME280;3298;42.688;23.366;2023-03-22T11:23:26;51807.16;;;-145.06;70.35
6530;BME280;3298;42.688;23.366;2023-03-22T11:25:55;51813.28;;;-145.06;70.64
6530;BME280;3298;42.688;23.366;2023-03-22T11:28:33;51831.72;;;-145.06;73.75
6530;BME280;3298;42.688;23.366;2023-03-22T11:31:03;51815.34;;;-145.06;75.12
6530;BME280;3298;42.688;23.366;2023-03-22T11:33:31;51831.72;;;-145.06;74.38
6530;BME280;3298;42.688;23.366;2023-03-22T11:36:00;51801.00;;;-145.06;74.04
6530;BME280;3298;42.688;23.366;2023-03-22T11:38:29;51801.00;;;-145.06;73.00
6530;BME280;3298;42.688;23.366;2023-03-22T11:41:02;51819.44;;;-145.06;73.02
6530;BME280;3298;42.688;23.366;2023-03-22T11:43:36;51827.63;;;-145.06;71.87
6530;BME280;3298;42.688;23.366;2023-03-22T11:46:06;51805.09;;;-145.06;73.28
6530;BME280;3298;42.688;23.366;2023-03-22T11:48:35;51827.63;;;-145.06;74.65
6530;BME280;3298;42.688;23.366;2023-03-22T11:51:08;51786.69;;;-145.06;72.62
6530;BME280;3298;42.688;23.366;2023-03-22T11:53:37;51796.91;;;-145.06;73.27
6530;BME280;3298;42.688;23.366;2023-03-22T11:56:07;51815.34;;;-145.06;72.32
6530;BME280;3298;42.688;23.366;2023-03-22T11:58:54;51813.28;;;-145.06;71.47
6530;BME280;3298;42.688;23.366;2023-03-22T12:01:31;51811.25;;;-145.06;73.41
6530;BME280;3298;42.688;23.366;2023-03-22T12:04:00;51807.16;;;-145.06;74.38
6530;BME280;3298;42.688;23.366;2023-03-22T12:06:31;51817.38;;;-145.06;75.00
6530;BME280;3298;42.688;23.366;2023-03-22T12:09:01;51813.28;;;-145.06;74.04
6530;BME280;3298;42.688;23.366;2023-03-22T12:11:33;51819.44;;;-145.06;73.55
6530;BME280;3298;42.688;23.366;2023-03-22T12:14:06;51827.63;;;-145.06;73.73
6530;BME280;3298;42.688;23.366;2023-03-22T12:16:39;51825.56;;;-145.06;72.81
6530;BME280;3298;42.688;23.366;2023-03-22T12:19:21;51807.16;;;-145.06;72.99
6530;BME280;3298;42.688;23.366;2023-03-22T12:21:49;51794.88;;;-145.06;70.64
6530;BME280;3298;42.688;23.366;2023-03-22T12:24:24;51829.66;;;-145.06;71.69
6530;BME280;3298;42.688;23.366;2023-03-22T12:26:55;51798.97;;;-145.06;73.42
6530;BME280;3298;42.688;23.366;2023-03-22T12:29:25;51817.38;;;-145.06;73.58
6530;BME280;3298;42.688;23.366;2023-03-22T12:31:59;51821.47;;;-145.06;72.89
6530;BME280;3298;42.688;23.366;2023-03-22T12:34:35;51790.78;;;-145.06;72.55
6530;BME280;3298;42.688;23.366;2023-03-22T12:37:06;51811.25;;;-145.06;72.67
6530;BME280;3298;42.688;23.366;2023-03-22T12:39:38;51815.34;;;-145.06;72.12
6530;BME280;3298;42.688;23.366;2023-03-22T12:42:12;51807.16;;;-145.06;70.30
6530;BME280;3298;42.688;23.366;2023-03-22T12:44:44;51839.91;;;-145.06;69.10
6530;BME280;3298;42.688;23.366;2023-03-22T12:47:20;51807.16;;;-145.06;68.97
6530;BME280;3298;42.688;23.366;2023-03-22T12:49:53;51798.97;;;-145.06;69.39
6530;BME280;3298;42.688;23.366;2023-03-22T12:52:24;51803.06;;;-145.06;68.49
6530;BME280;3298;42.688;23.366;2023-03-22T12:54:53;51811.25;;;-145.06;68.76
6530;BME280;3298;42.688;23.366;2023-03-22T12:57:21;51823.53;;;-145.06;68.36
6530;BME280;3298;42.688;23.366;2023-03-22T12:59:50;51811.25;;;-145.06;68.58
6530;BME280;3298;42.688;23.366;2023-03-22T13:02:22;51811.25;;;-145.06;68.97
6530;BME280;3298;42.688;23.366;2023-03-22T13:04:54;51833.75;;;-145.06;69.36
6530;BME280;3298;42.688;23.366;2023-03-22T13:07:35;51803.06;;;-145.06;68.98